Time;durP1;ratioP1;P1;durP2;ratioP2;P2;SDS_P1;SDS_P2;PMS_P1;PMS_P2;Temp;Humidity;BMP_temperature;BMP_pressure;BME280_temperature;BME280_humidity;BME280_pressure;Samples;Min_cycle;Max_cycle;Signal;HPM_P1;HPM_P2
2023/06/29 00:01:07;;;;;;;9.67;3.90;;;;;;;19.61;47.21;96323.28;5029651;28;20167;-68
2023/06/29 00:03:33;;;;;;;5.13;3.60;;;;;;;19.60;47.39;96326.06;5029244;28;20206;-69
2023/06/29 00:06:01;;;;;;;4.20;3.50;;;;;;;19.57;48.30;96329.81;5029684;28;20182;-70
2023/06/29 00:08:28;;;;;;;15.17;4.50;;;;;;;19.47;47.84;96328.88;5029747;28;20413;-69
2023/06/29 00:10:54;;;;;;;27.10;5.83;;;;;;;19.28;48.42;96326.00;5029703;28;20418;-70
2023/06/29 00:13:20;;;;;;;6.60;4.10;;;;;;;19.21;48.29;96321.16;5029255;28;20512;-69
2023/06/29 00:15:48;;;;;;;4.57;4.10;;;;;;;19.19;48.58;96320.44;5029394;28;20421;-68
2023/06/29 00:18:13;;;;;;;9.20;4.20;;;;;;;19.44;48.23;96311.34;5029102;28;20785;-68
2023/06/29 00:20:40;;;;;;;6.60;3.20;;;;;;;19.42;47.96;96310.63;5029396;28;20453;-69
2023/06/29 00:23:05;;;;;;;3.87;3.50;;;;;;;19.41;48.03;96311.56;5029289;28;20492;-69
2023/06/29 00:25:32;;;;;;;5.50;3.33;;;;;;;19.39;48.31;96308.22;5028958;28;20417;-68
2023/06/29 00:27:57;;;;;;;8.03;4.40;;;;;;;19.36;48.48;96310.25;5029251;28;20977;-69
2023/06/29 00:30:23;;;;;;;7.80;3.60;;;;;;;19.29;48.71;96309.91;5029163;28;20406;-69
2023/06/29 00:32:48;;;;;;;10.53;4.53;;;;;;;19.27;48.23;96308.34;5028909;28;20180;-69
2023/06/29 00:35:14;;;;;;;8.20;4.03;;;;;;;19.23;48.49;96311.25;5028655;28;20756;-69
2023/06/29 00:37:39;;;;;;;18.63;5.50;;;;;;;19.15;49.07;96311.00;5029169;28;20807;-70
2023/06/29 00:40:06;;;;;;;23.00;4.93;;;;;;;19.21;48.83;96307.03;5028899;28;20237;-69
2023/06/29 00:42:31;;;;;;;16.80;4.70;;;;;;;19.16;48.68;96295.91;5028746;28;20259;-68
2023/06/29 00:44:57;;;;;;;5.40;3.80;;;;;;;19.15;49.23;96300.38;5028433;28;21118;-68
2023/06/29 00:47:22;;;;;;;5.40;3.70;;;;;;;19.17;49.45;96303.75;5028752;28;20168;-70
2023/06/29 00:49:48;;;;;;;5.07;4.13;;;;;;;19.05;49.19;96302.06;5029088;28;20545;-70
2023/06/29 00:52:13;;;;;;;8.90;3.97;;;;;;;19.07;49.72;96302.81;5028821;28;20171;-69
2023/06/29 00:54:39;;;;;;;8.60;4.03;;;;;;;19.00;49.87;96301.59;5028350;28;20234;-70
2023/06/29 00:57:08;;;;;;;13.10;5.57;;;;;;;19.05;49.57;96296.75;5028538;28;20588;-68
2023/06/29 00:59:34;;;;;;;5.37;4.27;;;;;;;19.04;49.35;96292.44;5028335;28;20721;-69
2023/06/29 01:02:00;;;;;;;7.83;4.20;;;;;;;19.12;49.44;96294.47;5028419;28;20962;-69
2023/06/29 01:04:26;;;;;;;5.10;3.73;;;;;;;18.94;49.61;96296.75;5028024;28;20521;-68
2023/06/29 01:07:06;;;;;;;11.57;4.63;;;;;;;19.07;49.22;96294.81;5028397;28;20253;-68
2023/06/29 01:09:32;;;;;;;4.63;4.23;;;;;;;19.07;49.28;96286.84;5028303;28;20175;-69
2023/06/29 01:11:59;;;;;;;8.03;3.87;;;;;;;18.91;49.38;96281.06;5028308;28;20791;-69
2023/06/29 01:14:26;;;;;;;5.73;4.00;;;;;;;18.64;50.20;96287.56;5027994;28;20430;-69
2023/06/29 01:16:54;;;;;;;10.17;4.30;;;;;;;18.59;50.43;96287.03;5028021;28;20418;-69
2023/06/29 01:19:25;;;;;;;8.43;3.87;;;;;;;18.56;50.61;96292.59;5028364;28;20477;-69
2023/06/29 01:22:02;;;;;;;4.03;3.53;;;;;;;18.71;50.27;96279.91;5028151;28;20489;-69
2023/06/29 01:24:38;;;;;;;12.40;4.37;;;;;;;18.86;49.97;96280.56;5027968;28;20452;-69
2023/06/29 01:27:06;;;;;;;19.23;4.47;;;;;;;18.94;50.09;96278.16;5027992;28;20430;-69
2023/06/29 01:29:31;;;;;;;11.57;5.17;;;;;;;18.95;49.88;96280.69;5035819;28;20936;-69
2023/06/29 01:32:03;;;;;;;4.00;3.60;;;;;;;18.94;50.08;96272.81;5035976;28;20418;-69
2023/06/29 01:34:32;;;;;;;6.20;3.40;;;;;;;18.90;49.93;96271.38;5027590;28;20203;-69
2023/06/29 01:37:27;;;;;;;5.87;4.30;;;;;;;18.76;50.15;96270.66;5027893;28;20422;-69
2023/06/29 01:39:59;;;;;;;8.87;4.90;;;;;;;18.72;50.71;96269.19;5023888;28;20470;-69
2023/06/29 01:42:28;;;;;;;7.23;4.40;;;;;;;18.53;50.34;96267.13;5027827;28;20406;-68
2023/06/29 01:44:54;;;;;;;52.47;8.57;;;;;;;18.69;50.45;96268.59;5027694;28;20866;-69
2023/06/29 01:47:21;;;;;;;8.00;4.87;;;;;;;18.54;50.28;96268.81;5027947;28;20470;-69
2023/06/29 01:49:48;;;;;;;11.50;5.23;;;;;;;18.24;51.08;96274.69;5027437;28;20167;-69
2023/06/29 01:52:14;;;;;;;5.67;4.40;;;;;;;17.78;52.36;96273.66;5027574;28;20425;-69
2023/06/29 01:54:39;;;;;;;7.20;4.40;;;;;;;17.88;52.17;96273.88;5027181;28;20439;-69
2023/06/29 01:57:06;;;;;;;10.53;4.20;;;;;;;17.48;53.94;96273.28;5027473;28;20473;-69
2023/06/29 01:59:31;;;;;;;5.97;4.73;;;;;;;17.37;54.25;96271.44;5027271;28;20232;-69
2023/06/29 02:01:56;;;;;;;5.33;4.40;;;;;;;17.52;53.75;96264.97;5027708;28;21259;-68
2023/06/29 02:04:22;;;;;;;20.23;6.33;;;;;;;17.61;53.84;96265.28;5026965;28;20623;-68
2023/06/29 02:06:47;;;;;;;6.53;4.70;;;;;;;17.93;52.84;96263.75;5027576;28;20233;-68
2023/06/29 02:09:13;;;;;;;10.50;4.57;;;;;;;17.97;52.98;96275.81;5027695;28;20286;-67
2023/06/29 02:11:38;;;;;;;20.33;5.40;;;;;;;18.18;51.88;96267.19;5031951;28;20171;-69
2023/06/29 02:14:04;;;;;;;7.80;4.83;;;;;;;18.23;51.72;96253.53;5027208;28;20282;-68
2023/06/29 02:16:29;;;;;;;9.63;5.10;;;;;;;18.28;51.09;96251.38;5027507;28;20203;-69
2023/06/29 02:18:54;;;;;;;11.43;4.83;;;;;;;18.27;51.38;96263.81;5026439;28;20234;-69
2023/06/29 02:21:20;;;;;;;13.70;5.10;;;;;;;18.20;51.25;96252.81;5026627;28;20209;-69
2023/06/29 02:23:45;;;;;;;7.50;6.80;;;;;;;17.87;52.00;96252.75;5027863;28;20278;-68
2023/06/29 02:26:11;;;;;;;10.57;5.10;;;;;;;18.18;51.85;96246.78;5028816;28;20201;-70
2023/06/29 02:28:37;;;;;;;12.93;5.23;;;;;;;18.03;51.50;96253.28;5026681;28;20234;-69
2023/06/29 02:31:02;;;;;;;7.47;4.70;;;;;;;18.02;52.45;96253.38;5026825;28;20418;-69
2023/06/29 02:33:28;;;;;;;10.20;5.60;;;;;;;18.09;52.61;96250.13;5041873;28;20311;-69
2023/06/29 02:35:53;;;;;;;6.83;4.60;;;;;;;18.21;52.58;96251.00;5026968;28;20210;-69
2023/06/29 02:38:18;;;;;;;20.33;5.47;;;;;;;18.02;52.93;96243.59;5026487;28;20800;-70
2023/06/29 02:40:44;;;;;;;9.63;5.50;;;;;;;18.07;52.82;96253.88;5026754;28;20241;-69
2023/06/29 02:43:10;;;;;;;30.00;7.10;;;;;;;18.05;52.35;96254.00;5026381;28;20237;-69
2023/06/29 02:45:35;;;;;;;27.83;10.13;;;;;;;17.94;52.77;96246.84;5026218;28;20246;-69
2023/06/29 02:48:00;;;;;;;25.43;6.83;;;;;;;17.90;52.41;96240.06;5026822;28;20199;-69
2023/06/29 02:50:26;;;;;;;29.37;6.33;;;;;;;17.79;52.96;96247.97;5026607;28;20225;-69
2023/06/29 02:52:52;;;;;;;14.87;6.27;;;;;;;17.74;53.53;96242.16;5026459;28;20167;-69
2023/06/29 02:55:21;;;;;;;9.70;4.47;;;;;;;17.74;52.85;96244.81;5026083;28;20261;-69
2023/06/29 02:57:46;;;;;;;14.03;5.40;;;;;;;17.67;52.83;96240.91;5026160;28;20406;-69
2023/06/29 03:00:12;;;;;;;8.43;4.90;;;;;;;17.69;53.44;96239.88;5026291;28;20464;-69
2023/06/29 03:02:38;;;;;;;12.53;4.97;;;;;;;17.80;52.50;96239.03;5026209;28;20652;-67
2023/06/29 03:05:03;;;;;;;20.00;5.60;;;;;;;17.80;52.75;96243.50;5025939;28;20271;-70
2023/06/29 03:07:29;;;;;;;37.13;7.20;;;;;;;17.78;53.08;96244.47;5026414;28;20194;-70
2023/06/29 03:09:54;;;;;;;15.87;7.33;;;;;;;17.72;53.71;96244.09;5025984;28;20527;-69
2023/06/29 03:12:22;;;;;;;14.53;6.00;;;;;;;17.48;54.56;96237.00;5026116;28;20229;-68
2023/06/29 03:14:48;;;;;;;27.67;7.17;;;;;;;17.58;54.00;96233.66;5025592;28;20286;-69
2023/06/29 03:17:14;;;;;;;17.60;5.97;;;;;;;17.57;54.37;96235.44;5026370;28;20411;-69
2023/06/29 03:19:40;;;;;;;15.80;6.20;;;;;;;17.61;54.50;96231.63;5025782;28;20318;-68
2023/06/29 03:22:05;;;;;;;33.37;6.90;;;;;;;17.60;54.73;96237.03;5026161;28;20544;-70
2023/06/29 03:24:30;;;;;;;28.53;8.00;;;;;;;17.53;55.50;96226.88;5026020;28;20194;-69
2023/06/29 03:26:56;;;;;;;22.10;7.60;;;;;;;17.32;55.83;96231.97;5028867;28;20175;-70
2023/06/29 03:29:21;;;;;;;24.47;7.87;;;;;;;17.55;55.46;96237.38;5025974;28;20171;-70
2023/06/29 03:31:46;;;;;;;11.57;5.77;;;;;;;17.35;55.57;96237.03;5026108;28;20183;-69
2023/06/29 03:34:12;;;;;;;11.27;5.27;;;;;;;17.48;55.50;96230.81;5025570;28;20241;-70
2023/06/29 03:36:37;;;;;;;40.07;8.53;;;;;;;17.53;55.05;96234.84;5026331;28;20678;-69
2023/06/29 03:39:03;;;;;;;15.77;6.20;;;;;;;17.55;55.01;96229.41;5026266;28;20196;-69
2023/06/29 03:41:29;;;;;;;10.30;5.63;;;;;;;17.57;55.29;96232.81;5025982;28;20701;-69
2023/06/29 03:43:55;;;;;;;5.53;4.50;;;;;;;17.61;54.34;96230.78;5025553;28;20580;-70
2023/06/29 03:46:21;;;;;;;13.37;5.60;;;;;;;17.33;55.83;96228.34;5025723;28;20561;-69
2023/06/29 03:48:46;;;;;;;7.00;5.40;;;;;;;17.60;54.32;96231.72;5019956;28;20716;-69
2023/06/29 03:51:12;;;;;;;16.73;5.40;;;;;;;17.52;54.10;96233.13;5024181;28;21015;-70
2023/06/29 03:53:37;;;;;;;43.47;8.43;;;;;;;17.53;54.58;96231.34;5005835;28;20274;-70
2023/06/29 03:56:03;;;;;;;18.40;7.00;;;;;;;17.36;55.24;96240.53;5006122;28;20180;-70
2023/06/29 03:58:28;;;;;;;26.03;7.90;;;;;;;17.37;55.54;96241.41;5006183;28;20188;-69
2023/06/29 04:00:54;;;;;;;20.93;7.53;;;;;;;17.47;55.29;96231.81;5025700;28;20199;-70
2023/06/29 04:03:20;;;;;;;46.47;8.13;;;;;;;17.98;52.69;96237.69;5025381;28;20199;-69
2023/06/29 04:05:45;;;;;;;35.93;6.70;;;;;;;18.36;51.15;96231.22;5025403;28;20179;-69
2023/06/29 04:08:11;;;;;;;32.77;8.10;;;;;;;18.63;50.57;96228.22;5025535;28;20190;-70
2023/06/29 04:10:37;;;;;;;27.33;8.80;;;;;;;18.89;50.28;96233.31;5040360;28;20586;-69
2023/06/29 04:13:02;;;;;;;13.63;5.60;;;;;;;19.00;49.35;96229.81;5025344;28;20418;-69
2023/06/29 04:15:28;;;;;;;9.60;6.10;;;;;;;18.77;49.24;96229.81;5025325;28;20212;-69
2023/06/29 04:17:53;;;;;;;11.43;6.07;;;;;;;19.12;48.26;96230.63;5025347;28;20191;-69
2023/06/29 04:20:19;;;;;;;53.37;10.93;;;;;;;19.57;47.29;96228.66;5025341;28;20200;-70
2023/06/29 04:22:44;;;;;;;27.10;7.30;;;;;;;19.45;46.98;96229.69;5025332;28;20283;-70
2023/06/29 04:25:09;;;;;;;35.20;8.33;;;;;;;19.55;46.90;96230.59;5025012;28;20210;-70
2023/06/29 04:27:35;;;;;;;35.47;7.93;;;;;;;19.44;46.76;96234.16;5024278;28;20309;-70
2023/06/29 04:30:03;;;;;;;12.30;5.90;;;;;;;19.64;46.72;96235.16;5044070;28;20186;-70
2023/06/29 04:32:28;;;;;;;16.00;7.53;;;;;;;19.79;46.00;96224.25;5036335;28;20190;-70
2023/06/29 04:34:53;;;;;;;27.00;6.80;;;;;;;19.80;46.00;96220.63;5044818;28;20437;-69
2023/06/29 04:37:19;;;;;;;21.97;7.60;;;;;;;19.88;46.58;96219.00;5044993;28;20201;-69
2023/06/29 04:39:44;;;;;;;50.47;8.23;;;;;;;19.92;46.75;96224.06;5043588;28;20238;-68
2023/06/29 04:42:13;;;;;;;29.43;7.80;;;;;;;19.72;46.20;96217.75;5045415;28;20171;-69
2023/06/29 04:44:39;;;;;;;33.03;8.17;;;;;;;19.86;46.26;96217.44;5048560;28;20718;-69
2023/06/29 04:47:05;;;;;;;39.17;8.53;;;;;;;20.06;45.67;96229.09;5048655;28;20409;-69
2023/06/29 04:49:31;;;;;;;21.20;6.20;;;;;;;19.55;47.08;96230.59;5048750;28;20413;-69
2023/06/29 04:51:59;;;;;;;17.67;7.20;;;;;;;19.92;46.06;96227.59;5049035;28;20416;-69
2023/06/29 04:54:26;;;;;;;14.97;6.40;;;;;;;20.25;45.62;96223.03;5048579;28;20315;-70
2023/06/29 04:56:52;;;;;;;24.93;7.30;;;;;;;20.44;45.39;96220.47;5048403;28;20448;-70
2023/06/29 04:59:17;;;;;;;9.20;6.40;;;;;;;20.68;44.72;96216.69;5048459;28;20551;-70
2023/06/29 05:01:42;;;;;;;6.63;5.17;;;;;;;20.81;43.89;96224.44;5048569;28;20190;-70
2023/06/29 05:04:08;;;;;;;19.00;8.77;;;;;;;20.42;45.12;96216.25;5047973;28;20307;-69
2023/06/29 05:06:33;;;;;;;32.67;7.63;;;;;;;20.39;45.84;96217.34;5048219;28;20179;-70
2023/06/29 05:08:58;;;;;;;15.30;6.47;;;;;;;21.02;43.61;96219.03;5048066;28;20849;-69
2023/06/29 05:11:24;;;;;;;16.53;5.87;;;;;;;20.65;43.89;96220.47;5047930;28;20201;-69
2023/06/29 05:13:49;;;;;;;9.33;6.37;;;;;;;20.26;45.31;96206.06;5047517;28;20199;-70
2023/06/29 05:16:15;;;;;;;12.17;6.83;;;;;;;19.91;45.66;96217.03;5046890;28;20182;-68
2023/06/29 05:18:40;;;;;;;41.40;9.73;;;;;;;19.70;46.33;96219.69;5050615;28;20182;-69
2023/06/29 05:21:05;;;;;;;9.80;7.20;;;;;;;19.65;46.39;96214.72;5048515;28;20692;-69
2023/06/29 05:23:31;;;;;;;10.17;6.73;;;;;;;20.00;45.73;96209.13;5044884;28;20195;-68
2023/06/29 05:25:56;;;;;;;7.87;6.77;;;;;;;20.49;44.59;96212.06;5045130;28;20171;-69
2023/06/29 05:28:22;;;;;;;30.67;9.00;;;;;;;20.81;44.99;96208.44;5045916;28;20175;-69
2023/06/29 05:30:47;;;;;;;23.60;8.63;;;;;;;21.12;43.42;96210.09;5062933;28;20253;-69
2023/06/29 05:33:12;;;;;;;28.90;8.60;;;;;;;21.44;43.41;96208.19;5058839;28;20936;-68
2023/06/29 05:35:38;;;;;;;10.87;7.40;;;;;;;20.57;44.67;96212.25;5053009;28;20187;-68
2023/06/29 05:38:03;;;;;;;22.13;8.20;;;;;;;21.25;43.21;96215.16;5056235;28;20822;-69
2023/06/29 05:40:29;;;;;;;20.53;7.97;;;;;;;21.30;43.39;96212.06;5048731;28;20206;-68
2023/06/29 05:42:54;;;;;;;24.30;8.20;;;;;;;21.39;43.08;96199.72;5046916;28;20209;-68
2023/06/29 05:45:20;;;;;;;9.23;6.77;;;;;;;21.31;43.12;96203.94;5050042;28;20217;-71
2023/06/29 05:47:45;;;;;;;22.43;8.57;;;;;;;21.36;43.66;96209.69;5050029;28;20183;-69
2023/06/29 05:50:11;;;;;;;13.90;7.30;;;;;;;21.59;42.79;96208.59;5051693;28;20182;-67
2023/06/29 05:52:37;;;;;;;8.30;6.30;;;;;;;21.81;42.41;96204.84;5042734;28;20187;-69
2023/06/29 05:55:03;;;;;;;9.10;7.47;;;;;;;21.83;42.34;96200.16;5041113;28;20974;-67
2023/06/29 05:57:29;;;;;;;8.87;7.30;;;;;;;21.92;43.52;96213.53;5043689;28;20466;-68
2023/06/29 05:59:54;;;;;;;15.33;6.20;;;;;;;22.32;43.22;96203.63;5044714;28;20213;-67
2023/06/29 06:02:20;;;;;;;25.40;6.70;;;;;;;22.01;42.72;96202.97;5062973;28;20178;-69
2023/06/29 06:04:45;;;;;;;18.97;8.10;;;;;;;22.31;42.23;96202.81;5055985;28;20708;-68
2023/06/29 06:07:14;;;;;;;14.93;7.53;;;;;;;22.08;42.42;96204.91;5043115;28;20187;-67
2023/06/29 06:09:39;;;;;;;57.13;10.60;;;;;;;22.11;42.45;96212.66;5051858;28;20232;-68
2023/06/29 06:12:05;;;;;;;23.20;8.10;;;;;;;21.32;44.00;96208.28;5053873;28;20453;-68
2023/06/29 06:14:31;;;;;;;34.23;9.70;;;;;;;21.96;43.39;96214.91;5042016;28;20875;-68
2023/06/29 06:16:56;;;;;;;14.90;7.73;;;;;;;22.42;43.01;96201.81;5031252;28;20270;-67
2023/06/29 06:19:22;;;;;;;8.10;7.40;;;;;;;22.51;41.36;96203.59;5042404;28;20198;-67
2023/06/29 06:21:47;;;;;;;7.67;6.97;;;;;;;22.25;41.96;96199.84;5051656;28;20861;-67
2023/06/29 06:24:12;;;;;;;12.97;7.60;;;;;;;22.16;42.37;96199.72;5055196;28;20238;-68
2023/06/29 06:26:38;;;;;;;22.33;8.47;;;;;;;22.81;41.34;96210.50;5043266;28;20611;-66
2023/06/29 06:29:03;;;;;;;30.47;9.50;;;;;;;22.65;41.72;96201.41;5048603;28;20170;-67
2023/06/29 06:31:28;;;;;;;30.73;7.80;;;;;;;22.82;41.19;96206.00;5042674;28;20180;-67
2023/06/29 06:33:57;;;;;;;12.33;7.70;;;;;;;21.75;43.26;96200.88;5045964;28;20347;-67
2023/06/29 06:36:24;;;;;;;10.37;7.00;;;;;;;21.64;43.98;96201.00;5055300;28;20183;-68
2023/06/29 06:38:50;;;;;;;16.53;8.30;;;;;;;22.04;43.08;96200.00;5050109;28;21055;-69
2023/06/29 06:41:15;;;;;;;15.30;7.40;;;;;;;22.76;41.47;96202.06;5055405;28;20445;-68
2023/06/29 06:43:40;;;;;;;8.97;7.27;;;;;;;23.10;40.43;96195.31;5057148;28;20914;-69
2023/06/29 06:46:06;;;;;;;17.97;7.50;;;;;;;23.35;39.50;96199.13;5052606;28;20272;-68
2023/06/29 06:48:31;;;;;;;7.83;6.77;;;;;;;23.12;40.09;96193.34;5058359;28;20182;-68
2023/06/29 06:50:57;;;;;;;7.67;6.70;;;;;;;22.83;41.29;96196.97;5057303;28;20196;-66
2023/06/29 06:53:22;;;;;;;7.53;6.67;;;;;;;22.79;41.53;96196.41;5048026;28;21095;-67
2023/06/29 06:55:47;;;;;;;8.47;7.13;;;;;;;22.72;41.50;96200.69;5055203;28;20178;-68
2023/06/29 06:58:13;;;;;;;7.60;5.70;;;;;;;23.47;40.06;96192.53;5043192;28;20187;-69
2023/06/29 07:00:38;;;;;;;24.33;7.50;;;;;;;24.08;39.02;96182.88;5053731;28;20199;-69
2023/06/29 07:03:04;;;;;;;8.97;5.80;;;;;;;24.43;38.40;96186.47;5046449;28;20737;-68
2023/06/29 07:05:29;;;;;;;12.17;6.03;;;;;;;24.06;39.28;96184.88;5054310;28;20182;-68
2023/06/29 07:07:55;;;;;;;13.40;6.77;;;;;;;24.05;39.08;96186.72;5048243;28;20235;-68
2023/06/29 07:10:20;;;;;;;7.90;6.07;;;;;;;24.07;38.86;96181.19;5043208;28;20184;-68
2023/06/29 07:12:46;;;;;;;6.87;5.77;;;;;;;23.49;39.91;96185.19;5057454;28;20594;-68
2023/06/29 07:15:12;;;;;;;13.80;6.90;;;;;;;23.57;39.66;96185.25;5060341;28;20642;-68
2023/06/29 07:17:37;;;;;;;30.53;7.73;;;;;;;23.74;39.08;96182.75;5046428;28;20190;-68
2023/06/29 07:20:06;;;;;;;9.87;6.27;;;;;;;23.88;38.40;96168.81;5053422;28;20206;-68
2023/06/29 07:22:32;;;;;;;8.80;4.87;;;;;;;24.10;37.53;96164.81;5054455;28;20267;-68
2023/06/29 07:24:58;;;;;;;13.50;6.80;;;;;;;23.92;37.73;96167.50;5050030;28;20496;-68
2023/06/29 07:27:24;;;;;;;8.77;5.47;;;;;;;24.32;37.21;96162.59;5050910;28;20785;-68
2023/06/29 07:29:49;;;;;;;7.57;4.80;;;;;;;24.40;36.33;96165.31;5049852;28;20472;-68
2023/06/29 07:32:15;;;;;;;25.43;5.67;;;;;;;24.88;36.13;96162.06;5044145;28;20179;-68
2023/06/29 07:34:40;;;;;;;33.43;8.23;;;;;;;25.04;36.21;96163.09;5046795;28;20206;-68
2023/06/29 07:37:06;;;;;;;21.10;6.20;;;;;;;25.12;36.39;96158.63;5053649;28;20438;-70
2023/06/29 07:39:33;;;;;;;7.57;6.63;;;;;;;24.93;36.50;96166.94;5050615;28;20212;-68
2023/06/29 07:41:58;;;;;;;15.90;6.20;;;;;;;24.67;37.16;96162.47;5048015;28;20183;-66
2023/06/29 07:44:23;;;;;;;11.33;5.87;;;;;;;25.05;36.53;96156.75;5053980;28;20980;-68
2023/06/29 07:46:49;;;;;;;15.17;5.47;;;;;;;25.25;36.23;96149.28;5046738;28;20978;-69
2023/06/29 07:49:14;;;;;;;18.33;7.77;;;;;;;25.38;36.76;96146.94;5055582;28;20696;-68
2023/06/29 07:51:40;;;;;;;9.70;5.83;;;;;;;25.31;36.28;96146.78;5051798;28;20250;-69
2023/06/29 07:54:06;;;;;;;8.97;5.80;;;;;;;25.14;36.32;96148.56;5051649;28;20209;-68
2023/06/29 07:56:32;;;;;;;29.27;8.13;;;;;;;25.10;36.29;96152.56;5054761;28;20173;-69
2023/06/29 07:58:57;;;;;;;11.77;6.70;;;;;;;25.02;36.61;96149.88;5049076;28;21224;-69
2023/06/29 08:01:23;;;;;;;10.43;6.40;;;;;;;24.47;37.15;96144.94;5046702;28;20589;-68
2023/06/29 08:03:48;;;;;;;13.40;7.67;;;;;;;25.15;36.12;96146.69;5044221;28;20199;-68
2023/06/29 08:06:14;;;;;;;9.90;6.20;;;;;;;25.39;35.69;96143.25;5044979;28;20177;-68
2023/06/29 08:08:39;;;;;;;8.73;6.23;;;;;;;24.78;35.95;96139.91;5041020;28;20724;-68
2023/06/29 08:11:04;;;;;;;14.87;5.50;;;;;;;25.25;35.64;96143.91;5041828;28;20531;-67
2023/06/29 08:13:30;;;;;;;9.00;8.10;;;;;;;24.76;36.55;96147.25;5043772;28;20206;-67
2023/06/29 08:15:55;;;;;;;11.90;8.20;;;;;;;24.63;36.48;96149.53;5041318;28;20568;-70
2023/06/29 08:18:21;;;;;;;15.23;8.00;;;;;;;25.31;35.31;96136.03;5046692;28;20191;-69
2023/06/29 08:20:46;;;;;;;21.90;6.30;;;;;;;25.22;33.02;96134.31;5045701;28;21263;-69
2023/06/29 08:23:13;;;;;;;4.27;3.83;;;;;;;25.41;33.25;96132.34;5047114;28;20206;-67
2023/06/29 08:25:38;;;;;;;20.00;6.23;;;;;;;25.81;32.85;96133.38;5046445;28;20191;-68
2023/06/29 08:28:04;;;;;;;27.83;5.20;;;;;;;25.96;33.09;96121.81;5044504;28;21011;-70
2023/06/29 08:30:29;;;;;;;8.00;5.00;;;;;;;25.22;34.04;96120.06;5045496;28;20198;-69
2023/06/29 08:32:55;;;;;;;5.20;3.40;;;;;;;25.38;33.78;96127.31;5045772;28;20286;-68
2023/06/29 08:35:20;;;;;;;9.50;5.37;;;;;;;24.62;35.17;96134.47;5045900;28;20610;-69
2023/06/29 08:37:45;;;;;;;5.97;4.47;;;;;;;25.21;34.18;96129.13;5045062;28;20228;-69
2023/06/29 08:40:12;;;;;;;6.30;4.87;;;;;;;25.78;33.30;96119.25;5045999;28;20190;-67
2023/06/29 08:42:38;;;;;;;20.80;6.17;;;;;;;25.46;34.76;96133.53;5047718;28;20187;-69
2023/06/29 08:45:06;;;;;;;9.10;3.90;;;;;;;25.03;33.54;96127.38;5046244;28;20544;-69
2023/06/29 08:47:33;;;;;;;6.53;4.03;;;;;;;25.22;33.37;96128.97;5050657;28;20436;-69
2023/06/29 08:50:03;;;;;;;4.87;3.67;;;;;;;24.94;34.01;96128.34;5046359;28;20770;-69
2023/06/29 08:52:33;;;;;;;11.53;3.80;;;;;;;26.02;32.53;96122.97;5050848;28;20431;-68
2023/06/29 08:54:58;;;;;;;14.60;4.50;;;;;;;25.61;31.91;96120.28;5060613;28;20475;-68
2023/06/29 08:57:24;;;;;;;9.53;3.83;;;;;;;25.69;32.64;96131.03;5057297;28;20495;-69
2023/06/29 08:59:50;;;;;;;5.40;3.30;;;;;;;26.12;32.01;96120.94;5056112;28;20428;-69
2023/06/29 09:02:16;;;;;;;10.33;3.63;;;;;;;26.78;30.76;96120.75;5055667;28;20178;-70
2023/06/29 09:04:44;;;;;;;16.23;4.50;;;;;;;27.30;29.81;96111.25;5045043;28;20480;-69
2023/06/29 09:07:09;;;;;;;6.33;3.73;;;;;;;26.38;30.46;96117.16;5046079;28;20433;-69
2023/06/29 09:09:35;;;;;;;4.80;3.37;;;;;;;26.18;30.66;96114.03;5057542;28;20483;-70
2023/06/29 09:12:01;;;;;;;2.90;2.70;;;;;;;26.28;30.09;96105.78;5054632;28;20184;-69
2023/06/29 09:14:28;;;;;;;4.00;3.53;;;;;;;26.21;30.12;96111.00;5052051;28;20317;-68
2023/06/29 09:16:58;;;;;;;4.67;3.20;;;;;;;25.89;30.70;96103.81;5042472;28;20179;-68
2023/06/29 09:19:24;;;;;;;6.70;3.37;;;;;;;25.64;30.52;96097.59;5060486;28;20464;-68
2023/06/29 09:21:50;;;;;;;18.37;5.17;;;;;;;25.69;31.20;96093.38;5050443;28;20428;-68
2023/06/29 09:24:19;;;;;;;8.70;3.00;;;;;;;26.27;30.87;96102.25;5045253;28;20199;-70
2023/06/29 09:26:49;;;;;;;12.33;3.97;;;;;;;26.75;30.24;96094.19;5043593;28;20207;-69
2023/06/29 09:29:14;;;;;;;4.30;2.80;;;;;;;26.69;29.68;96094.88;5042610;28;20459;-69
2023/06/29 09:31:39;;;;;;;13.53;4.10;;;;;;;26.35;30.03;96099.53;5044628;28;20540;-69
2023/06/29 09:34:34;;;;;;;6.10;2.90;;;;;;;26.52;29.87;96096.78;5042588;28;20198;-67
2023/06/29 09:37:00;;;;;;;12.00;3.73;;;;;;;26.76;29.60;96085.94;5042974;28;20684;-69
2023/06/29 09:39:26;;;;;;;14.53;3.90;;;;;;;26.44;29.00;96096.81;5052515;28;20465;-68
2023/06/29 09:41:54;;;;;;;4.90;2.83;;;;;;;26.95;28.36;96094.59;5051289;28;20265;-68
2023/06/29 09:44:22;;;;;;;10.43;3.33;;;;;;;26.85;28.75;96093.97;5047048;28;20463;-68
2023/06/29 09:46:48;;;;;;;7.47;4.23;;;;;;;27.30;28.19;96081.63;5043710;28;21239;-66
2023/06/29 09:49:15;;;;;;;5.13;3.23;;;;;;;26.88;28.93;96083.69;5044184;28;20444;-68
2023/06/29 09:51:41;;;;;;;6.90;2.47;;;;;;;26.69;29.40;96090.34;5059897;28;20431;-69
2023/06/29 09:54:13;;;;;;;5.33;3.20;;;;;;;26.48;30.19;96095.44;5040846;28;20451;-70
2023/06/29 09:56:40;;;;;;;3.37;2.90;;;;;;;26.51;30.60;96087.03;5045304;28;20528;-69
2023/06/29 09:59:09;;;;;;;4.57;3.03;;;;;;;26.65;30.25;96078.25;5042832;28;20433;-69
2023/06/29 10:01:35;;;;;;;129.87;117.33;;;;;;;27.17;30.43;96071.41;5043964;28;20425;-70
2023/06/29 10:04:02;;;;;;;42.20;38.20;;;;;;;27.11;29.63;96075.63;5044820;28;20453;-69
2023/06/29 10:06:43;;;;;;;268.33;250.20;;;;;;;26.84;29.95;96071.59;5043687;28;20509;-68
2023/06/29 10:09:13;;;;;;;1846.90;920.70;;;;;;;27.21;30.53;96079.00;5048534;28;20436;-70
2023/06/29 10:11:41;;;;;;;53.53;48.20;;;;;;;27.67;28.50;96072.72;5049622;28;20432;-69
2023/06/29 10:14:09;;;;;;;85.77;76.93;;;;;;;27.94;28.22;96068.63;5061120;28;20452;-68
2023/06/29 10:16:41;;;;;;;13.83;5.10;;;;;;;26.91;29.39;96077.13;5043988;28;20452;-69
2023/06/29 10:19:20;;;;;;;3.60;2.80;;;;;;;26.20;30.81;96085.13;5056978;28;20448;-68
2023/06/29 10:21:52;;;;;;;4.47;3.63;;;;;;;26.45;30.56;96076.97;5047128;28;20807;-70
2023/06/29 10:24:25;;;;;;;20.03;18.13;;;;;;;26.30;31.06;96069.63;5048531;28;21248;-69
2023/06/29 10:26:52;;;;;;;10.47;9.37;;;;;;;26.12;31.44;96075.22;5056079;28;20466;-69
2023/06/29 10:29:17;;;;;;;44.37;35.87;;;;;;;26.23;32.36;96063.25;5057415;28;20446;-68
2023/06/29 10:31:48;;;;;;;8.83;6.50;;;;;;;26.58;31.04;96061.97;5051955;28;20428;-68
2023/06/29 10:34:14;;;;;;;3.70;3.40;;;;;;;26.81;30.18;96061.16;5058313;28;20217;-68
2023/06/29 10:36:48;;;;;;;11.27;7.27;;;;;;;26.64;30.87;96059.59;5047943;28;20859;-69
2023/06/29 10:39:40;;;;;;;12.83;8.00;;;;;;;26.91;30.52;96056.41;5044040;28;20207;-69
2023/06/29 10:42:24;;;;;;;10.60;6.47;;;;;;;27.17;30.54;96050.69;5044768;28;20926;-70
2023/06/29 10:44:50;;;;;;;4.27;3.23;;;;;;;26.75;29.76;96048.44;5034829;28;21076;-70
2023/06/29 10:47:25;;;;;;;3.87;3.23;;;;;;;26.12;30.58;96055.53;5043611;28;20437;-68
2023/06/29 10:49:56;;;;;;;3.60;2.40;;;;;;;26.03;30.61;96054.72;5041691;28;20185;-69
2023/06/29 10:52:24;;;;;;;15.63;4.50;;;;;;;26.13;31.18;96047.31;5038249;28;20413;-68
2023/06/29 10:55:17;;;;;;;9.00;3.07;;;;;;;26.50;30.65;96044.97;5045136;28;20550;-69
2023/06/29 10:57:47;;;;;;;13.23;7.10;;;;;;;26.55;31.49;96048.88;5045415;28;20425;-69
2023/06/29 11:00:13;;;;;;;6.80;5.43;;;;;;;26.71;31.19;96042.56;5045966;28;20448;-71
2023/06/29 11:02:39;;;;;;;9.03;3.33;;;;;;;26.58;30.74;96045.81;5045341;28;20471;-68
2023/06/29 11:05:05;;;;;;;3.33;2.60;;;;;;;26.31;30.66;96044.38;5045203;28;20462;-71
2023/06/29 11:07:31;;;;;;;3.87;2.70;;;;;;;25.91;31.31;96045.34;5045636;28;20466;-71
2023/06/29 11:10:00;;;;;;;5.70;2.50;;;;;;;26.05;31.38;96043.81;5045383;28;20269;-70
2023/06/29 11:12:25;;;;;;;3.73;2.80;;;;;;;26.35;30.79;96042.19;5045839;28;20540;-68
2023/06/29 11:14:51;;;;;;;10.17;2.87;;;;;;;26.18;31.37;96038.72;5044825;28;20445;-70
2023/06/29 11:17:17;;;;;;;5.23;2.60;;;;;;;26.85;30.04;96030.19;5044761;28;20208;-69
2023/06/29 11:19:45;;;;;;;7.47;3.20;;;;;;;26.80;30.01;96038.81;5045047;28;20205;-70
2023/06/29 11:22:11;;;;;;;4.07;2.77;;;;;;;26.82;30.83;96035.94;5044467;28;20779;-70
2023/06/29 11:24:37;;;;;;;4.10;2.60;;;;;;;27.43;30.14;96027.97;5045286;28;20437;-69
2023/06/29 11:27:02;;;;;;;5.53;3.10;;;;;;;27.20;29.88;96023.41;5045539;28;20408;-68